sensor_id;sensor_type;location;lat;lon;timestamp;temperature;humidity
6986;DHT22;3533;51.246;6.850;2023-04-06T00:01:00;19.40;40.50
6986;DHT22;3533;51.246;6.850;2023-04-06T00:03:26;19.40;40.50
6986;DHT22;3533;51.246;6.850;2023-04-06T00:05:51;19.40;40.60
6986;DHT22;3533;51.246;6.850;2023-04-06T00:08:17;19.40;40.60
6986;DHT22;3533;51.246;6.850;2023-04-06T00:10:43;19.40;40.60
6986;DHT22;3533;51.246;6.850;2023-04-06T00:13:08;19.40;40.70
6986;DHT22;3533;51.246;6.850;2023-04-06T00:15:34;19.40;40.60
6986;DHT22;3533;51.246;6.850;2023-04-06T00:18:00;19.40;40.60
6986;DHT22;3533;51.246;6.850;2023-04-06T00:20:25;19.40;40.60
6986;DHT22;3533;51.246;6.850;2023-04-06T00:22:51;19.40;40.70
6986;DHT22;3533;51.246;6.850;2023-04-06T00:25:17;19.40;40.70
6986;DHT22;3533;51.246;6.850;2023-04-06T00:27:42;19.40;40.60
6986;DHT22;3533;51.246;6.850;2023-04-06T00:30:08;19.40;40.60
6986;DHT22;3533;51.246;6.850;2023-04-06T00:32:34;19.40;40.60
6986;DHT22;3533;51.246;6.850;2023-04-06T00:35:04;19.40;40.70
6986;DHT22;3533;51.246;6.850;2023-04-06T00:37:30;19.40;40.60
6986;DHT22;3533;51.246;6.850;2023-04-06T00:39:56;19.40;40.60
6986;DHT22;3533;51.246;6.850;2023-04-06T00:42:22;19.40;40.60
6986;DHT22;3533;51.246;6.850;2023-04-06T00:44:52;19.40;40.60
6986;DHT22;3533;51.246;6.850;2023-04-06T00:47:18;19.40;40.60
6986;DHT22;3533;51.246;6.850;2023-04-06T00:49:44;19.40;40.60
6986;DHT22;3533;51.246;6.850;2023-04-06T00:52:09;19.40;40.70
6986;DHT22;3533;51.246;6.850;2023-04-06T00:54:35;19.40;40.70
6986;DHT22;3533;51.246;6.850;2023-04-06T00:57:01;19.40;40.70
6986;DHT22;3533;51.246;6.850;2023-04-06T00:59:28;19.40;40.70
6986;DHT22;3533;51.246;6.850;2023-04-06T01:01:54;19.40;40.70
6986;DHT22;3533;51.246;6.850;2023-04-06T01:04:20;19.40;40.60
6986;DHT22;3533;51.246;6.850;2023-04-06T01:06:48;19.40;40.60
6986;DHT22;3533;51.246;6.850;2023-04-06T01:09:14;19.40;40.70
6986;DHT22;3533;51.246;6.850;2023-04-06T01:11:39;19.40;40.70
6986;DHT22;3533;51.246;6.850;2023-04-06T01:14:05;19.40;40.70
6986;DHT22;3533;51.246;6.850;2023-04-06T01:16:31;19.40;40.70
6986;DHT22;3533;51.246;6.850;2023-04-06T01:18:57;19.40;40.70
6986;DHT22;3533;51.246;6.850;2023-04-06T01:21:22;19.40;40.70
6986;DHT22;3533;51.246;6.850;2023-04-06T01:23:48;19.40;40.70
6986;DHT22;3533;51.246;6.850;2023-04-06T01:26:13;19.40;40.70
6986;DHT22;3533;51.246;6.850;2023-04-06T01:28:39;19.40;40.70
6986;DHT22;3533;51.246;6.850;2023-04-06T01:31:07;19.40;40.70
6986;DHT22;3533;51.246;6.850;2023-04-06T01:33:33;19.40;40.70
6986;DHT22;3533;51.246;6.850;2023-04-06T01:35:59;19.40;40.70
6986;DHT22;3533;51.246;6.850;2023-04-06T01:38:25;19.40;40.70
6986;DHT22;3533;51.246;6.850;2023-04-06T01:40:52;19.40;40.80
6986;DHT22;3533;51.246;6.850;2023-04-06T01:43:17;19.40;40.80
6986;DHT22;3533;51.246;6.850;2023-04-06T01:45:43;19.40;40.80
6986;DHT22;3533;51.246;6.850;2023-04-06T01:48:08;19.40;40.80
6986;DHT22;3533;51.246;6.850;2023-04-06T01:50:34;19.40;40.80
6986;DHT22;3533;51.246;6.850;2023-04-06T01:52:59;19.30;40.80
6986;DHT22;3533;51.246;6.850;2023-04-06T01:55:25;19.30;40.80
6986;DHT22;3533;51.246;6.850;2023-04-06T01:57:51;19.30;40.90
6986;DHT22;3533;51.246;6.850;2023-04-06T02:00:17;19.30;40.80
6986;DHT22;3533;51.246;6.850;2023-04-06T02:02:42;19.30;40.90
6986;DHT22;3533;51.246;6.850;2023-04-06T02:05:08;19.30;40.90
6986;DHT22;3533;51.246;6.850;2023-04-06T02:07:34;19.30;40.90
6986;DHT22;3533;51.246;6.850;2023-04-06T02:10:00;19.30;40.90
6986;DHT22;3533;51.246;6.850;2023-04-06T02:12:25;19.30;40.90
6986;DHT22;3533;51.246;6.850;2023-04-06T02:14:51;19.30;40.90
6986;DHT22;3533;51.246;6.850;2023-04-06T02:17:17;19.30;40.90
6986;DHT22;3533;51.246;6.850;2023-04-06T02:19:42;19.30;41.00
6986;DHT22;3533;51.246;6.850;2023-04-06T02:22:09;19.30;41.00
6986;DHT22;3533;51.246;6.850;2023-04-06T02:24:34;19.30;41.00
6986;DHT22;3533;51.246;6.850;2023-04-06T02:27:01;19.30;41.00
6986;DHT22;3533;51.246;6.850;2023-04-06T02:29:26;19.30;41.00
6986;DHT22;3533;51.246;6.850;2023-04-06T02:31:52;19.30;41.10
6986;DHT22;3533;51.246;6.850;2023-04-06T02:34:17;19.30;41.10
6986;DHT22;3533;51.246;6.850;2023-04-06T02:36:47;19.30;41.00
6986;DHT22;3533;51.246;6.850;2023-04-06T02:39:12;19.30;41.00
6986;DHT22;3533;51.246;6.850;2023-04-06T02:41:38;19.30;41.00
6986;DHT22;3533;51.246;6.850;2023-04-06T02:44:07;19.30;41.00
6986;DHT22;3533;51.246;6.850;2023-04-06T02:46:33;19.30;41.00
6986;DHT22;3533;51.246;6.850;2023-04-06T02:48:58;19.30;41.00
6986;DHT22;3533;51.246;6.850;2023-04-06T02:51:26;19.30;41.00
6986;DHT22;3533;51.246;6.850;2023-04-06T02:53:51;19.30;41.00
6986;DHT22;3533;51.246;6.850;2023-04-06T02:56:17;19.30;41.00
6986;DHT22;3533;51.246;6.850;2023-04-06T02:58:43;19.30;41.00
6986;DHT22;3533;51.246;6.850;2023-04-06T03:01:08;19.30;41.10
6986;DHT22;3533;51.246;6.850;2023-04-06T03:03:34;19.30;41.10
6986;DHT22;3533;51.246;6.850;2023-04-06T03:05:59;19.30;41.00
6986;DHT22;3533;51.246;6.850;2023-04-06T03:08:25;19.30;41.10
6986;DHT22;3533;51.246;6.850;2023-04-06T03:10:51;19.30;41.10
6986;DHT22;3533;51.246;6.850;2023-04-06T03:13:16;19.30;41.10
6986;DHT22;3533;51.246;6.850;2023-04-06T03:15:42;19.30;41.10
6986;DHT22;3533;51.246;6.850;2023-04-06T03:18:07;19.20;41.00
6986;DHT22;3533;51.246;6.850;2023-04-06T03:20:33;19.20;40.90
6986;DHT22;3533;51.246;6.850;2023-04-06T03:22:59;19.30;41.10
6986;DHT22;3533;51.246;6.850;2023-04-06T03:25:25;19.30;41.10
6986;DHT22;3533;51.246;6.850;2023-04-06T03:27:50;19.30;41.10
6986;DHT22;3533;51.246;6.850;2023-04-06T03:30:16;19.30;41.10
6986;DHT22;3533;51.246;6.850;2023-04-06T03:32:43;19.30;41.10
6986;DHT22;3533;51.246;6.850;2023-04-06T03:35:09;19.20;41.00
6986;DHT22;3533;51.246;6.850;2023-04-06T03:37:35;19.20;41.00
6986;DHT22;3533;51.246;6.850;2023-04-06T03:40:01;19.30;41.10
6986;DHT22;3533;51.246;6.850;2023-04-06T03:42:26;19.20;41.00
6986;DHT22;3533;51.246;6.850;2023-04-06T03:44:52;19.30;41.10
6986;DHT22;3533;51.246;6.850;2023-04-06T03:47:18;19.20;41.00
6986;DHT22;3533;51.246;6.850;2023-04-06T03:49:43;19.30;41.10
6986;DHT22;3533;51.246;6.850;2023-04-06T03:52:09;19.30;41.10
6986;DHT22;3533;51.246;6.850;2023-04-06T03:54:35;19.30;41.10
6986;DHT22;3533;51.246;6.850;2023-04-06T03:57:00;19.20;41.00
6986;DHT22;3533;51.246;6.850;2023-04-06T03:59:26;19.30;41.10
6986;DHT22;3533;51.246;6.850;2023-04-06T04:01:52;19.30;41.10
6986;DHT22;3533;51.246;6.850;2023-04-06T04:04:17;19.30;41.10
6986;DHT22;3533;51.246;6.850;2023-04-06T04:06:43;19.30;41.10
6986;DHT22;3533;51.246;6.850;2023-04-06T04:09:09;19.20;41.00
6986;DHT22;3533;51.246;6.850;2023-04-06T04:11:34;19.20;41.00
6986;DHT22;3533;51.246;6.850;2023-04-06T04:14:00;19.30;41.10
6986;DHT22;3533;51.246;6.850;2023-04-06T04:16:25;19.30;41.10
6986;DHT22;3533;51.246;6.850;2023-04-06T04:18:51;19.20;41.00
6986;DHT22;3533;51.246;6.850;2023-04-06T04:21:17;19.30;41.10
6986;DHT22;3533;51.246;6.850;2023-04-06T04:23:42;19.20;41.00
6986;DHT22;3533;51.246;6.850;2023-04-06T04:26:08;19.20;41.00
6986;DHT22;3533;51.246;6.850;2023-04-06T04:28:34;19.20;40.90
6986;DHT22;3533;51.246;6.850;2023-04-06T04:30:59;19.30;40.90
6986;DHT22;3533;51.246;6.850;2023-04-06T04:33:25;19.30;40.90
6986;DHT22;3533;51.246;6.850;2023-04-06T04:35:50;19.30;40.80
6986;DHT22;3533;51.246;6.850;2023-04-06T04:38:16;19.30;40.80
6986;DHT22;3533;51.246;6.850;2023-04-06T04:40:42;19.40;40.80
6986;DHT22;3533;51.246;6.850;2023-04-06T04:43:07;19.40;40.80
6986;DHT22;3533;51.246;6.850;2023-04-06T04:45:33;19.40;40.80
6986;DHT22;3533;51.246;6.850;2023-04-06T04:47:58;19.40;40.70
6986;DHT22;3533;51.246;6.850;2023-04-06T04:50:25;19.40;40.80
6986;DHT22;3533;51.246;6.850;2023-04-06T04:52:50;19.40;40.80
6986;DHT22;3533;51.246;6.850;2023-04-06T04:55:16;19.40;40.70
6986;DHT22;3533;51.246;6.850;2023-04-06T04:57:42;19.40;40.70
6986;DHT22;3533;51.246;6.850;2023-04-06T05:00:08;19.40;40.60
6986;DHT22;3533;51.246;6.850;2023-04-06T05:02:34;19.40;40.60
6986;DHT22;3533;51.246;6.850;2023-04-06T05:05:00;19.40;40.50
6986;DHT22;3533;51.246;6.850;2023-04-06T05:07:26;19.40;40.50
6986;DHT22;3533;51.246;6.850;2023-04-06T05:09:52;19.40;40.50
6986;DHT22;3533;51.246;6.850;2023-04-06T05:12:18;19.40;40.40
6986;DHT22;3533;51.246;6.850;2023-04-06T05:14:44;19.40;40.50
6986;DHT22;3533;51.246;6.850;2023-04-06T05:17:10;19.40;40.40
6986;DHT22;3533;51.246;6.850;2023-04-06T05:19:36;19.40;40.40
6986;DHT22;3533;51.246;6.850;2023-04-06T05:22:01;19.40;40.40
6986;DHT22;3533;51.246;6.850;2023-04-06T05:24:27;19.50;40.50
6986;DHT22;3533;51.246;6.850;2023-04-06T05:26:52;19.40;40.40
6986;DHT22;3533;51.246;6.850;2023-04-06T05:29:18;19.50;40.50
6986;DHT22;3533;51.246;6.850;2023-04-06T05:31:45;19.50;40.50
6986;DHT22;3533;51.246;6.850;2023-04-06T05:34:11;19.50;40.40
6986;DHT22;3533;51.246;6.850;2023-04-06T05:36:38;19.50;40.50
6986;DHT22;3533;51.246;6.850;2023-04-06T05:39:03;19.50;40.40
6986;DHT22;3533;51.246;6.850;2023-04-06T05:41:29;19.50;40.40
6986;DHT22;3533;51.246;6.850;2023-04-06T05:43:55;19.50;40.40
6986;DHT22;3533;51.246;6.850;2023-04-06T05:46:20;19.50;40.50
6986;DHT22;3533;51.246;6.850;2023-04-06T05:48:46;19.50;40.40
6986;DHT22;3533;51.246;6.850;2023-04-06T05:51:12;19.50;40.50
6986;DHT22;3533;51.246;6.850;2023-04-06T05:53:38;19.50;40.50
6986;DHT22;3533;51.246;6.850;2023-04-06T05:56:03;19.50;40.50
6986;DHT22;3533;51.246;6.850;2023-04-06T05:58:29;19.50;40.40
6986;DHT22;3533;51.246;6.850;2023-04-06T06:00:59;19.50;40.40
6986;DHT22;3533;51.246;6.850;2023-04-06T06:03:25;19.50;40.40
6986;DHT22;3533;51.246;6.850;2023-04-06T06:05:51;19.50;40.30
6986;DHT22;3533;51.246;6.850;2023-04-06T06:08:16;19.50;40.30
6986;DHT22;3533;51.246;6.850;2023-04-06T06:10:42;19.50;40.30
6986;DHT22;3533;51.246;6.850;2023-04-06T06:13:08;19.50;40.30
6986;DHT22;3533;51.246;6.850;2023-04-06T06:15:34;19.60;40.40
6986;DHT22;3533;51.246;6.850;2023-04-06T06:18:00;19.50;40.30
6986;DHT22;3533;51.246;6.850;2023-04-06T06:20:26;19.50;40.30
6986;DHT22;3533;51.246;6.850;2023-04-06T06:22:52;19.50;40.30
6986;DHT22;3533;51.246;6.850;2023-04-06T06:25:18;19.50;40.30
6986;DHT22;3533;51.246;6.850;2023-04-06T06:27:43;19.50;40.30
6986;DHT22;3533;51.246;6.850;2023-04-06T06:30:09;19.50;40.30
6986;DHT22;3533;51.246;6.850;2023-04-06T06:32:35;19.50;40.20
6986;DHT22;3533;51.246;6.850;2023-04-06T06:35:01;19.50;40.30
6986;DHT22;3533;51.246;6.850;2023-04-06T06:37:26;19.60;40.30
6986;DHT22;3533;51.246;6.850;2023-04-06T06:39:52;19.50;40.30
6986;DHT22;3533;51.246;6.850;2023-04-06T06:42:18;19.50;40.30
6986;DHT22;3533;51.246;6.850;2023-04-06T06:44:43;19.50;40.20
6986;DHT22;3533;51.246;6.850;2023-04-06T06:47:09;19.60;40.30
6986;DHT22;3533;51.246;6.850;2023-04-06T06:49:34;19.60;40.40
6986;DHT22;3533;51.246;6.850;2023-04-06T06:52:00;19.60;40.40
6986;DHT22;3533;51.246;6.850;2023-04-06T06:54:26;19.60;40.30
6986;DHT22;3533;51.246;6.850;2023-04-06T06:56:51;19.60;40.30
6986;DHT22;3533;51.246;6.850;2023-04-06T06:59:17;19.60;40.30
6986;DHT22;3533;51.246;6.850;2023-04-06T07:01:43;19.60;40.30
6986;DHT22;3533;51.246;6.850;2023-04-06T07:04:08;19.60;40.50
6986;DHT22;3533;51.246;6.850;2023-04-06T07:06:37;19.60;40.30
6986;DHT22;3533;51.246;6.850;2023-04-06T07:09:02;19.60;40.20
6986;DHT22;3533;51.246;6.850;2023-04-06T07:11:31;19.60;40.30
6986;DHT22;3533;51.246;6.850;2023-04-06T07:13:56;19.60;40.20
6986;DHT22;3533;51.246;6.850;2023-04-06T07:16:22;19.60;40.30
6986;DHT22;3533;51.246;6.850;2023-04-06T07:18:47;19.60;40.20
6986;DHT22;3533;51.246;6.850;2023-04-06T07:21:13;19.60;40.30
6986;DHT22;3533;51.246;6.850;2023-04-06T07:23:39;19.60;40.30
6986;DHT22;3533;51.246;6.850;2023-04-06T07:26:05;19.60;40.30
6986;DHT22;3533;51.246;6.850;2023-04-06T07:28:30;19.60;40.30
6986;DHT22;3533;51.246;6.850;2023-04-06T07:30:56;19.60;40.30
6986;DHT22;3533;51.246;6.850;2023-04-06T07:33:22;19.60;40.30
6986;DHT22;3533;51.246;6.850;2023-04-06T07:35:47;19.60;40.30
6986;DHT22;3533;51.246;6.850;2023-04-06T07:38:13;19.60;40.30
6986;DHT22;3533;51.246;6.850;2023-04-06T07:40:39;19.60;40.40
6986;DHT22;3533;51.246;6.850;2023-04-06T07:43:04;19.60;40.30
6986;DHT22;3533;51.246;6.850;2023-04-06T07:45:30;19.60;40.30
6986;DHT22;3533;51.246;6.850;2023-04-06T07:47:56;19.60;40.30
6986;DHT22;3533;51.246;6.850;2023-04-06T07:50:21;19.50;40.20
6986;DHT22;3533;51.246;6.850;2023-04-06T07:52:47;19.60;40.20
6986;DHT22;3533;51.246;6.850;2023-04-06T07:55:13;19.60;40.20
6986;DHT22;3533;51.246;6.850;2023-04-06T07:57:38;19.60;40.10
6986;DHT22;3533;51.246;6.850;2023-04-06T08:00:04;19.60;40.00
6986;DHT22;3533;51.246;6.850;2023-04-06T08:02:31;19.60;40.00
6986;DHT22;3533;51.246;6.850;2023-04-06T08:04:57;19.60;40.00
6986;DHT22;3533;51.246;6.850;2023-04-06T08:07:23;19.60;39.90
6986;DHT22;3533;51.246;6.850;2023-04-06T08:09:48;19.60;39.90
6986;DHT22;3533;51.246;6.850;2023-04-06T08:12:14;19.60;39.90
6986;DHT22;3533;51.246;6.850;2023-04-06T08:14:40;19.60;39.90
6986;DHT22;3533;51.246;6.850;2023-04-06T08:17:05;19.60;39.90
6986;DHT22;3533;51.246;6.850;2023-04-06T08:19:31;19.60;39.90
6986;DHT22;3533;51.246;6.850;2023-04-06T08:21:57;19.60;39.90
6986;DHT22;3533;51.246;6.850;2023-04-06T08:24:22;19.50;39.80
6986;DHT22;3533;51.246;6.850;2023-04-06T08:26:48;19.50;39.80
6986;DHT22;3533;51.246;6.850;2023-04-06T08:29:14;19.50;39.80
6986;DHT22;3533;51.246;6.850;2023-04-06T08:31:39;19.50;39.80
6986;DHT22;3533;51.246;6.850;2023-04-06T08:34:05;19.50;39.80
6986;DHT22;3533;51.246;6.850;2023-04-06T08:36:31;19.50;39.80
6986;DHT22;3533;51.246;6.850;2023-04-06T08:38:56;19.50;39.80
6986;DHT22;3533;51.246;6.850;2023-04-06T08:41:22;19.40;39.70
6986;DHT22;3533;51.246;6.850;2023-04-06T08:46:17;19.40;39.60
6986;DHT22;3533;51.246;6.850;2023-04-06T08:48:43;19.40;39.60
6986;DHT22;3533;51.246;6.850;2023-04-06T08:51:10;19.40;39.60
6986;DHT22;3533;51.246;6.850;2023-04-06T08:53:37;19.40;39.60
6986;DHT22;3533;51.246;6.850;2023-04-06T08:56:05;19.40;39.60
6986;DHT22;3533;51.246;6.850;2023-04-06T08:58:40;19.40;39.50
6986;DHT22;3533;51.246;6.850;2023-04-06T09:01:08;19.40;39.60
6986;DHT22;3533;51.246;6.850;2023-04-06T09:03:38;19.40;39.60
6986;DHT22;3533;51.246;6.850;2023-04-06T09:06:07;19.30;39.50
6986;DHT22;3533;51.246;6.850;2023-04-06T09:08:34;19.30;39.50
6986;DHT22;3533;51.246;6.850;2023-04-06T09:11:01;19.30;39.50
6986;DHT22;3533;51.246;6.850;2023-04-06T09:13:27;19.30;39.50
6986;DHT22;3533;51.246;6.850;2023-04-06T09:18:32;19.30;39.50
6986;DHT22;3533;51.246;6.850;2023-04-06T09:21:03;19.30;39.50
6986;DHT22;3533;51.246;6.850;2023-04-06T09:23:29;19.30;39.60
6986;DHT22;3533;51.246;6.850;2023-04-06T09:26:15;19.30;39.60
6986;DHT22;3533;51.246;6.850;2023-04-06T09:28:51;19.30;39.60
6986;DHT22;3533;51.246;6.850;2023-04-06T09:31:30;19.30;39.60
6986;DHT22;3533;51.246;6.850;2023-04-06T09:33:58;19.20;39.40
6986;DHT22;3533;51.246;6.850;2023-04-06T09:36:32;19.30;39.60
6986;DHT22;3533;51.246;6.850;2023-04-06T09:39:00;19.30;39.50
6986;DHT22;3533;51.246;6.850;2023-04-06T09:41:35;19.30;39.60
6986;DHT22;3533;51.246;6.850;2023-04-06T09:44:11;19.30;39.70
6986;DHT22;3533;51.246;6.850;2023-04-06T09:46:38;19.30;39.60
6986;DHT22;3533;51.246;6.850;2023-04-06T09:49:05;19.20;39.50
6986;DHT22;3533;51.246;6.850;2023-04-06T09:51:38;19.20;39.50
6986;DHT22;3533;51.246;6.850;2023-04-06T09:54:04;19.20;39.50
6986;DHT22;3533;51.246;6.850;2023-04-06T09:56:45;19.20;39.50
6986;DHT22;3533;51.246;6.850;2023-04-06T09:59:14;19.20;39.50
6986;DHT22;3533;51.246;6.850;2023-04-06T10:01:43;19.20;39.50
6986;DHT22;3533;51.246;6.850;2023-04-06T10:04:27;19.20;39.50
6986;DHT22;3533;51.246;6.850;2023-04-06T10:06:55;19.20;39.60
6986;DHT22;3533;51.246;6.850;2023-04-06T10:09:25;19.20;39.60
6986;DHT22;3533;51.246;6.850;2023-04-06T10:11:53;19.20;39.50
6986;DHT22;3533;51.246;6.850;2023-04-06T10:14:20;19.20;39.50
6986;DHT22;3533;51.246;6.850;2023-04-06T10:16:47;19.20;39.60
6986;DHT22;3533;51.246;6.850;2023-04-06T10:19:18;19.20;39.50
6986;DHT22;3533;51.246;6.850;2023-04-06T10:21:48;19.20;39.50
6986;DHT22;3533;51.246;6.850;2023-04-06T10:24:15;19.20;39.60
6986;DHT22;3533;51.246;6.850;2023-04-06T10:26:42;19.20;39.50
6986;DHT22;3533;51.246;6.850;2023-04-06T10:31:52;19.20;39.60
6986;DHT22;3533;51.246;6.850;2023-04-06T10:34:18;19.20;39.60
6986;DHT22;3533;51.246;6.850;2023-04-06T10:36:45;19.20;39.60
6986;DHT22;3533;51.246;6.850;2023-04-06T10:39:10;19.20;39.70
6986;DHT22;3533;51.246;6.850;2023-04-06T10:41:43;19.20;39.70
6986;DHT22;3533;51.246;6.850;2023-04-06T10:44:21;19.20;39.70
6986;DHT22;3533;51.246;6.850;2023-04-06T10:46:57;19.10;39.60
6986;DHT22;3533;51.246;6.850;2023-04-06T10:49:25;19.20;39.70
6986;DHT22;3533;51.246;6.850;2023-04-06T10:51:55;19.20;39.70
6986;DHT22;3533;51.246;6.850;2023-04-06T10:54:22;19.20;39.80
6986;DHT22;3533;51.246;6.850;2023-04-06T10:56:48;19.10;39.60
6986;DHT22;3533;51.246;6.850;2023-04-06T10:59:19;19.10;40.40
6986;DHT22;3533;51.246;6.850;2023-04-06T11:01:45;19.10;39.60
6986;DHT22;3533;51.246;6.850;2023-04-06T11:04:16;19.10;39.60
6986;DHT22;3533;51.246;6.850;2023-04-06T11:06:46;19.10;39.70
6986;DHT22;3533;51.246;6.850;2023-04-06T11:09:23;19.10;39.70
6986;DHT22;3533;51.246;6.850;2023-04-06T11:11:48;19.10;39.60
6986;DHT22;3533;51.246;6.850;2023-04-06T11:14:14;19.10;39.70
6986;DHT22;3533;51.246;6.850;2023-04-06T11:16:40;19.10;39.60
6986;DHT22;3533;51.246;6.850;2023-04-06T11:19:05;19.10;39.70
6986;DHT22;3533;51.246;6.850;2023-04-06T11:21:38;19.10;39.70
6986;DHT22;3533;51.246;6.850;2023-04-06T11:24:21;19.10;39.70
6986;DHT22;3533;51.246;6.850;2023-04-06T11:26:54;19.10;39.80
6986;DHT22;3533;51.246;6.850;2023-04-06T11:29:25;19.10;39.80
6986;DHT22;3533;51.246;6.850;2023-04-06T11:32:00;19.10;39.80
6986;DHT22;3533;51.246;6.850;2023-04-06T11:34:26;19.10;39.80
6986;DHT22;3533;51.246;6.850;2023-04-06T11:36:58;19.10;39.80
6986;DHT22;3533;51.246;6.850;2023-04-06T11:39:25;19.10;39.80
6986;DHT22;3533;51.246;6.850;2023-04-06T11:41:53;19.10;39.80
6986;DHT22;3533;51.246;6.850;2023-04-06T11:44:44;19.10;39.80
6986;DHT22;3533;51.246;6.850;2023-04-06T11:47:14;19.10;39.80
6986;DHT22;3533;51.246;6.850;2023-04-06T11:49:43;19.10;39.80
6986;DHT22;3533;51.246;6.850;2023-04-06T11:52:24;19.10;39.80
6986;DHT22;3533;51.246;6.850;2023-04-06T11:54:51;19.10;39.80
6986;DHT22;3533;51.246;6.850;2023-04-06T11:57:18;19.20;39.80
6986;DHT22;3533;51.246;6.850;2023-04-06T11:59:44;19.10;39.70
6986;DHT22;3533;51.246;6.850;2023-04-06T12:02:10;19.10;39.80
6986;DHT22;3533;51.246;6.850;2023-04-06T12:04:36;19.10;39.80
6986;DHT22;3533;51.246;6.850;2023-04-06T12:07:03;19.10;39.90
6986;DHT22;3533;51.246;6.850;2023-04-06T12:09:29;19.10;39.90
6986;DHT22;3533;51.246;6.850;2023-04-06T12:11:55;19.10;39.90
6986;DHT22;3533;51.246;6.850;2023-04-06T12:14:21;19.10;39.90
6986;DHT22;3533;51.246;6.850;2023-04-06T12:16:47;19.10;39.90
6986;DHT22;3533;51.246;6.850;2023-04-06T12:19:12;19.10;39.90
6986;DHT22;3533;51.246;6.850;2023-04-06T12:21:38;19.10;40.00
6986;DHT22;3533;51.246;6.850;2023-04-06T12:24:05;19.10;40.00
6986;DHT22;3533;51.246;6.850;2023-04-06T12:26:31;19.10;40.00
6986;DHT22;3533;51.246;6.850;2023-04-06T12:28:56;19.10;40.00
6986;DHT22;3533;51.246;6.850;2023-04-06T12:31:22;19.10;40.00
6986;DHT22;3533;51.246;6.850;2023-04-06T12:33:49;19.10;40.10
6986;DHT22;3533;51.246;6.850;2023-04-06T12:36:17;19.10;40.10
6986;DHT22;3533;51.246;6.850;2023-04-06T12:38:50;19.10;40.10
6986;DHT22;3533;51.246;6.850;2023-04-06T12:41:19;19.10;40.10
6986;DHT22;3533;51.246;6.850;2023-04-06T12:43:45;19.10;40.10
6986;DHT22;3533;51.246;6.850;2023-04-06T12:46:11;19.10;40.10
6986;DHT22;3533;51.246;6.850;2023-04-06T12:48:37;19.10;40.10
6986;DHT22;3533;51.246;6.850;2023-04-06T12:51:04;19.10;40.10
6986;DHT22;3533;51.246;6.850;2023-04-06T12:53:30;19.10;40.10
6986;DHT22;3533;51.246;6.850;2023-04-06T12:55:57;19.10;40.10
6986;DHT22;3533;51.246;6.850;2023-04-06T12:58:23;19.10;40.10
6986;DHT22;3533;51.246;6.850;2023-04-06T13:00:51;19.10;40.10
6986;DHT22;3533;51.246;6.850;2023-04-06T13:03:18;19.10;40.10
6986;DHT22;3533;51.246;6.850;2023-04-06T13:05:44;19.10;39.80
6986;DHT22;3533;51.246;6.850;2023-04-06T13:08:10;19.10;39.70
6986;DHT22;3533;51.246;6.850;2023-04-06T13:10:36;19.10;39.50
6986;DHT22;3533;51.246;6.850;2023-04-06T13:13:02;19.20;39.30
6986;DHT22;3533;51.246;6.850;2023-04-06T13:15:28;19.20;39.30
6986;DHT22;3533;51.246;6.850;2023-04-06T13:17:53;19.10;39.00
6986;DHT22;3533;51.246;6.850;2023-04-06T13:20:19;19.20;39.00
6986;DHT22;3533;51.246;6.850;2023-04-06T13:22:45;19.20;39.10
6986;DHT22;3533;51.246;6.850;2023-04-06T13:25:10;19.20;39.20
6986;DHT22;3533;51.246;6.850;2023-04-06T13:27:36;19.20;39.00
6986;DHT22;3533;51.246;6.850;2023-04-06T13:30:02;19.20;39.00
6986;DHT22;3533;51.246;6.850;2023-04-06T13:32:28;19.20;38.80
6986;DHT22;3533;51.246;6.850;2023-04-06T13:34:57;19.20;38.50
6986;DHT22;3533;51.246;6.850;2023-04-06T13:37:23;19.20;38.50
6986;DHT22;3533;51.246;6.850;2023-04-06T13:39:49;19.20;38.50
6986;DHT22;3533;51.246;6.850;2023-04-06T13:42:15;19.20;38.60
6986;DHT22;3533;51.246;6.850;2023-04-06T13:44:40;19.20;38.90
6986;DHT22;3533;51.246;6.850;2023-04-06T13:47:06;19.10;39.00
6986;DHT22;3533;51.246;6.850;2023-04-06T13:49:31;19.10;39.10
6986;DHT22;3533;51.246;6.850;2023-04-06T13:51:57;19.10;39.20
6986;DHT22;3533;51.246;6.850;2023-04-06T13:54:23;19.10;39.30
6986;DHT22;3533;51.246;6.850;2023-04-06T13:56:49;19.10;39.40
6986;DHT22;3533;51.246;6.850;2023-04-06T13:59:14;19.10;39.40
6986;DHT22;3533;51.246;6.850;2023-04-06T14:01:40;19.10;39.50
6986;DHT22;3533;51.246;6.850;2023-04-06T14:04:06;19.10;39.50
6986;DHT22;3533;51.246;6.850;2023-04-06T14:06:34;19.10;39.60
6986;DHT22;3533;51.246;6.850;2023-04-06T14:09:00;19.10;39.60
6986;DHT22;3533;51.246;6.850;2023-04-06T14:11:26;19.10;39.70
6986;DHT22;3533;51.246;6.850;2023-04-06T14:13:51;19.00;39.70
6986;DHT22;3533;51.246;6.850;2023-04-06T14:16:17;19.10;39.70
6986;DHT22;3533;51.246;6.850;2023-04-06T14:18:44;19.10;39.70
6986;DHT22;3533;51.246;6.850;2023-04-06T14:21:10;19.10;39.70
6986;DHT22;3533;51.246;6.850;2023-04-06T14:23:36;19.10;39.70
6986;DHT22;3533;51.246;6.850;2023-04-06T14:26:07;19.10;39.70
6986;DHT22;3533;51.246;6.850;2023-04-06T14:28:34;19.10;39.80
6986;DHT22;3533;51.246;6.850;2023-04-06T14:31:02;19.10;39.80
6986;DHT22;3533;51.246;6.850;2023-04-06T14:33:30;19.10;39.80
6986;DHT22;3533;51.246;6.850;2023-04-06T14:35:59;19.10;39.80
6986;DHT22;3533;51.246;6.850;2023-04-06T14:38:27;19.10;39.90
6986;DHT22;3533;51.246;6.850;2023-04-06T14:40:52;19.10;39.80
6986;DHT22;3533;51.246;6.850;2023-04-06T14:43:18;19.10;39.90
6986;DHT22;3533;51.246;6.850;2023-04-06T14:45:44;19.10;39.90
6986;DHT22;3533;51.246;6.850;2023-04-06T14:48:09;19.10;40.00
6986;DHT22;3533;51.246;6.850;2023-04-06T14:50:38;19.10;39.90
6986;DHT22;3533;51.246;6.850;2023-04-06T14:53:04;19.10;39.90
6986;DHT22;3533;51.246;6.850;2023-04-06T14:55:30;19.10;40.00
6986;DHT22;3533;51.246;6.850;2023-04-06T14:57:56;19.00;39.90
6986;DHT22;3533;51.246;6.850;2023-04-06T15:00:21;19.00;39.90
6986;DHT22;3533;51.246;6.850;2023-04-06T15:02:47;19.10;40.00
6986;DHT22;3533;51.246;6.850;2023-04-06T15:05:13;19.00;39.90
6986;DHT22;3533;51.246;6.850;2023-04-06T15:07:38;19.00;39.90
6986;DHT22;3533;51.246;6.850;2023-04-06T15:10:05;19.10;40.10
6986;DHT22;3533;51.246;6.850;2023-04-06T15:12:30;19.00;40.00
6986;DHT22;3533;51.246;6.850;2023-04-06T15:14:57;19.00;40.00
6986;DHT22;3533;51.246;6.850;2023-04-06T15:17:23;19.00;40.00
6986;DHT22;3533;51.246;6.850;2023-04-06T15:19:49;19.00;40.10
6986;DHT22;3533;51.246;6.850;2023-04-06T15:22:15;19.00;40.10
6986;DHT22;3533;51.246;6.850;2023-04-06T15:24:40;19.00;40.00
6986;DHT22;3533;51.246;6.850;2023-04-06T15:27:06;19.00;40.10
6986;DHT22;3533;51.246;6.850;2023-04-06T15:29:31;19.00;40.10
6986;DHT22;3533;51.246;6.850;2023-04-06T15:31:57;19.00;40.10
6986;DHT22;3533;51.246;6.850;2023-04-06T15:34:22;19.00;40.10
6986;DHT22;3533;51.246;6.850;2023-04-06T15:36:48;19.00;40.10
6986;DHT22;3533;51.246;6.850;2023-04-06T15:39:13;19.00;40.10
6986;DHT22;3533;51.246;6.850;2023-04-06T15:41:39;19.00;40.10
6986;DHT22;3533;51.246;6.850;2023-04-06T15:44:05;19.00;40.10
6986;DHT22;3533;51.246;6.850;2023-04-06T15:46:31;19.00;40.10
6986;DHT22;3533;51.246;6.850;2023-04-06T15:48:56;19.00;40.10
6986;DHT22;3533;51.246;6.850;2023-04-06T15:51:22;19.00;40.10
6986;DHT22;3533;51.246;6.850;2023-04-06T15:53:48;19.00;40.10
6986;DHT22;3533;51.246;6.850;2023-04-06T15:56:14;19.00;40.10
6986;DHT22;3533;51.246;6.850;2023-04-06T15:58:40;19.00;40.20
6986;DHT22;3533;51.246;6.850;2023-04-06T16:01:16;19.00;40.10
6986;DHT22;3533;51.246;6.850;2023-04-06T16:03:42;19.00;40.10
6986;DHT22;3533;51.246;6.850;2023-04-06T16:06:08;19.00;40.20